Terminal Aerodrome Forecast
Issued by NWS La Crosse, WI

Home | Current Version | Previous Version | Text Only | Print | Product List | Glossary On
Versions: 1 2 3 4 5 6 7 8 9 10 11 12 13 14 15 16 17 18 19 20 21 22 23 24 25 26 27 28 29 30
624
FTUS43 KARX 040041 AAA
TAFLSE
TAF AMD
KLSE 040041Z 0401/0424 27011KT P6SM BKN090
      TEMPO 0401/0402 3SM TSRA BKN040CB
     FM040200 32008KT P6SM SCT090
     FM041300 34011KT P6SM SKC
     FM041500 34015G25KT P6SM SCT040=

USA.gov is the U.S. government's official web portal to all federal, state and local government web resources and services.